sensor_id;sensor_type;location;lat;lon;timestamp;P1;durP1;ratioP1;P2;durP2;ratioP2
3443;SDS011;1736;52.068;6.968;2022-11-14T00:01:37;45.43;;;20.63;;
3443;SDS011;1736;52.068;6.968;2022-11-14T00:04:03;47.27;;;20.70;;
3443;SDS011;1736;52.068;6.968;2022-11-14T00:06:30;44.10;;;19.50;;
3443;SDS011;1736;52.068;6.968;2022-11-14T00:08:58;45.57;;;20.93;;
3443;SDS011;1736;52.068;6.968;2022-11-14T00:11:25;45.13;;;19.73;;
3443;SDS011;1736;52.068;6.968;2022-11-14T00:13:52;40.83;;;20.87;;
3443;SDS011;1736;52.068;6.968;2022-11-14T00:16:18;49.10;;;22.20;;
3443;SDS011;1736;52.068;6.968;2022-11-14T00:18:45;42.67;;;19.40;;
3443;SDS011;1736;52.068;6.968;2022-11-14T00:21:11;46.23;;;20.97;;
3443;SDS011;1736;52.068;6.968;2022-11-14T00:23:38;46.83;;;22.67;;
3443;SDS011;1736;52.068;6.968;2022-11-14T00:26:06;46.23;;;20.87;;
3443;SDS011;1736;52.068;6.968;2022-11-14T00:28:32;43.93;;;20.40;;
3443;SDS011;1736;52.068;6.968;2022-11-14T00:30:59;44.80;;;19.57;;
3443;SDS011;1736;52.068;6.968;2022-11-14T00:33:25;47.13;;;20.27;;
3443;SDS011;1736;52.068;6.968;2022-11-14T00:35:52;42.13;;;20.43;;
3443;SDS011;1736;52.068;6.968;2022-11-14T00:38:20;44.83;;;19.60;;
3443;SDS011;1736;52.068;6.968;2022-11-14T00:40:47;45.87;;;20.60;;
3443;SDS011;1736;52.068;6.968;2022-11-14T00:43:15;40.93;;;18.77;;
3443;SDS011;1736;52.068;6.968;2022-11-14T00:45:42;41.40;;;19.93;;
3443;SDS011;1736;52.068;6.968;2022-11-14T00:48:10;39.40;;;19.30;;
3443;SDS011;1736;52.068;6.968;2022-11-14T00:50:36;46.83;;;20.13;;
3443;SDS011;1736;52.068;6.968;2022-11-14T00:53:03;49.90;;;20.13;;
3443;SDS011;1736;52.068;6.968;2022-11-14T00:55:29;44.93;;;19.97;;
3443;SDS011;1736;52.068;6.968;2022-11-14T00:57:56;43.13;;;19.70;;
3443;SDS011;1736;52.068;6.968;2022-11-14T01:00:24;45.77;;;19.93;;
3443;SDS011;1736;52.068;6.968;2022-11-14T01:02:50;44.10;;;19.57;;
3443;SDS011;1736;52.068;6.968;2022-11-14T01:05:20;39.10;;;18.80;;
3443;SDS011;1736;52.068;6.968;2022-11-14T01:07:47;44.80;;;21.53;;
3443;SDS011;1736;52.068;6.968;2022-11-14T01:10:14;50.60;;;21.90;;
3443;SDS011;1736;52.068;6.968;2022-11-14T01:12:41;53.10;;;23.67;;
3443;SDS011;1736;52.068;6.968;2022-11-14T01:15:08;48.90;;;21.23;;
3443;SDS011;1736;52.068;6.968;2022-11-14T01:17:36;45.07;;;20.80;;
3443;SDS011;1736;52.068;6.968;2022-11-14T01:20:03;44.70;;;19.80;;
3443;SDS011;1736;52.068;6.968;2022-11-14T01:22:30;46.80;;;21.10;;
3443;SDS011;1736;52.068;6.968;2022-11-14T01:24:56;49.03;;;22.67;;
3443;SDS011;1736;52.068;6.968;2022-11-14T01:27:23;47.60;;;21.13;;
3443;SDS011;1736;52.068;6.968;2022-11-14T01:29:49;44.10;;;19.83;;
3443;SDS011;1736;52.068;6.968;2022-11-14T01:32:16;45.23;;;20.93;;
3443;SDS011;1736;52.068;6.968;2022-11-14T01:34:44;47.57;;;21.30;;
3443;SDS011;1736;52.068;6.968;2022-11-14T01:37:11;50.33;;;22.60;;
3443;SDS011;1736;52.068;6.968;2022-11-14T01:39:38;53.13;;;23.30;;
3443;SDS011;1736;52.068;6.968;2022-11-14T01:42:04;48.03;;;22.10;;
3443;SDS011;1736;52.068;6.968;2022-11-14T01:44:40;57.40;;;22.60;;
3443;SDS011;1736;52.068;6.968;2022-11-14T01:47:10;52.60;;;23.80;;
3443;SDS011;1736;52.068;6.968;2022-11-14T01:49:42;49.93;;;20.97;;
3443;SDS011;1736;52.068;6.968;2022-11-14T01:52:14;49.50;;;20.07;;
3443;SDS011;1736;52.068;6.968;2022-11-14T01:54:44;55.33;;;22.23;;
3443;SDS011;1736;52.068;6.968;2022-11-14T01:57:13;46.40;;;20.70;;
3443;SDS011;1736;52.068;6.968;2022-11-14T01:59:43;53.33;;;22.70;;
3443;SDS011;1736;52.068;6.968;2022-11-14T02:02:15;56.63;;;24.17;;
3443;SDS011;1736;52.068;6.968;2022-11-14T02:04:44;47.53;;;22.27;;
3443;SDS011;1736;52.068;6.968;2022-11-14T02:07:15;51.67;;;21.90;;
3443;SDS011;1736;52.068;6.968;2022-11-14T02:09:44;56.83;;;23.37;;
3443;SDS011;1736;52.068;6.968;2022-11-14T02:12:14;46.63;;;21.03;;
3443;SDS011;1736;52.068;6.968;2022-11-14T02:14:43;45.23;;;20.30;;
3443;SDS011;1736;52.068;6.968;2022-11-14T02:17:13;49.00;;;21.30;;
3443;SDS011;1736;52.068;6.968;2022-11-14T02:19:41;47.00;;;20.70;;
3443;SDS011;1736;52.068;6.968;2022-11-14T02:22:10;44.43;;;20.90;;
3443;SDS011;1736;52.068;6.968;2022-11-14T02:24:37;49.07;;;21.17;;
3443;SDS011;1736;52.068;6.968;2022-11-14T02:27:04;48.43;;;22.40;;
3443;SDS011;1736;52.068;6.968;2022-11-14T02:29:32;51.70;;;20.33;;
3443;SDS011;1736;52.068;6.968;2022-11-14T02:31:59;48.40;;;21.63;;
3443;SDS011;1736;52.068;6.968;2022-11-14T02:34:26;45.33;;;22.87;;
3443;SDS011;1736;52.068;6.968;2022-11-14T02:36:53;55.63;;;21.37;;
3443;SDS011;1736;52.068;6.968;2022-11-14T02:39:22;50.00;;;21.63;;
3443;SDS011;1736;52.068;6.968;2022-11-14T02:41:49;46.13;;;20.77;;
3443;SDS011;1736;52.068;6.968;2022-11-14T02:44:16;51.50;;;22.43;;
3443;SDS011;1736;52.068;6.968;2022-11-14T02:46:43;60.00;;;23.07;;
3443;SDS011;1736;52.068;6.968;2022-11-14T02:49:10;50.97;;;21.03;;
3443;SDS011;1736;52.068;6.968;2022-11-14T02:51:36;42.90;;;20.10;;
3443;SDS011;1736;52.068;6.968;2022-11-14T02:54:04;51.37;;;21.87;;
3443;SDS011;1736;52.068;6.968;2022-11-14T02:56:32;46.50;;;21.03;;
3443;SDS011;1736;52.068;6.968;2022-11-14T02:58:59;46.60;;;20.43;;
3443;SDS011;1736;52.068;6.968;2022-11-14T03:01:25;48.60;;;21.20;;
3443;SDS011;1736;52.068;6.968;2022-11-14T03:03:52;47.10;;;20.30;;
3443;SDS011;1736;52.068;6.968;2022-11-14T03:06:18;45.80;;;22.23;;
3443;SDS011;1736;52.068;6.968;2022-11-14T03:08:45;48.00;;;20.57;;
3443;SDS011;1736;52.068;6.968;2022-11-14T03:11:11;51.57;;;21.37;;
3443;SDS011;1736;52.068;6.968;2022-11-14T03:13:39;46.07;;;19.03;;
3443;SDS011;1736;52.068;6.968;2022-11-14T03:16:06;47.63;;;21.43;;
3443;SDS011;1736;52.068;6.968;2022-11-14T03:18:34;43.73;;;19.67;;
3443;SDS011;1736;52.068;6.968;2022-11-14T03:21:03;54.40;;;21.83;;
3443;SDS011;1736;52.068;6.968;2022-11-14T03:23:31;44.77;;;20.33;;
3443;SDS011;1736;52.068;6.968;2022-11-14T03:25:58;46.37;;;19.30;;
3443;SDS011;1736;52.068;6.968;2022-11-14T03:28:25;43.17;;;19.80;;
3443;SDS011;1736;52.068;6.968;2022-11-14T03:30:53;52.23;;;20.83;;
3443;SDS011;1736;52.068;6.968;2022-11-14T03:33:20;39.17;;;19.77;;
3443;SDS011;1736;52.068;6.968;2022-11-14T03:35:47;45.10;;;20.63;;
3443;SDS011;1736;52.068;6.968;2022-11-14T03:38:14;44.70;;;21.37;;
3443;SDS011;1736;52.068;6.968;2022-11-14T03:40:41;45.07;;;19.77;;
3443;SDS011;1736;52.068;6.968;2022-11-14T03:43:08;45.03;;;20.20;;
3443;SDS011;1736;52.068;6.968;2022-11-14T03:45:35;44.90;;;20.30;;
3443;SDS011;1736;52.068;6.968;2022-11-14T03:48:04;44.93;;;20.47;;
3443;SDS011;1736;52.068;6.968;2022-11-14T03:50:31;48.67;;;20.80;;
3443;SDS011;1736;52.068;6.968;2022-11-14T03:52:58;46.50;;;19.90;;
3443;SDS011;1736;52.068;6.968;2022-11-14T03:55:24;37.50;;;18.23;;
3443;SDS011;1736;52.068;6.968;2022-11-14T03:57:51;43.23;;;19.57;;
3443;SDS011;1736;52.068;6.968;2022-11-14T04:00:18;45.33;;;18.83;;
3443;SDS011;1736;52.068;6.968;2022-11-14T04:02:44;46.57;;;19.47;;
3443;SDS011;1736;52.068;6.968;2022-11-14T04:05:13;50.93;;;20.50;;
3443;SDS011;1736;52.068;6.968;2022-11-14T04:07:39;39.13;;;20.30;;
3443;SDS011;1736;52.068;6.968;2022-11-14T04:10:06;42.93;;;20.10;;
3443;SDS011;1736;52.068;6.968;2022-11-14T04:12:33;39.83;;;19.63;;
3443;SDS011;1736;52.068;6.968;2022-11-14T04:15:00;44.60;;;19.40;;
3443;SDS011;1736;52.068;6.968;2022-11-14T04:17:26;37.87;;;18.73;;
3443;SDS011;1736;52.068;6.968;2022-11-14T04:19:53;44.60;;;19.67;;
3443;SDS011;1736;52.068;6.968;2022-11-14T04:22:21;41.23;;;19.30;;
3443;SDS011;1736;52.068;6.968;2022-11-14T04:24:47;36.00;;;18.37;;
3443;SDS011;1736;52.068;6.968;2022-11-14T04:27:14;44.07;;;20.30;;
3443;SDS011;1736;52.068;6.968;2022-11-14T04:29:40;42.73;;;20.13;;
3443;SDS011;1736;52.068;6.968;2022-11-14T04:32:07;40.77;;;18.73;;
3443;SDS011;1736;52.068;6.968;2022-11-14T04:34:33;40.20;;;19.57;;
3443;SDS011;1736;52.068;6.968;2022-11-14T04:37:00;50.47;;;21.83;;
3443;SDS011;1736;52.068;6.968;2022-11-14T04:39:28;39.47;;;20.03;;
3443;SDS011;1736;52.068;6.968;2022-11-14T04:41:54;43.70;;;20.70;;
3443;SDS011;1736;52.068;6.968;2022-11-14T04:44:21;46.03;;;19.97;;
3443;SDS011;1736;52.068;6.968;2022-11-14T04:46:47;42.73;;;20.60;;
3443;SDS011;1736;52.068;6.968;2022-11-14T04:49:14;41.97;;;19.60;;
3443;SDS011;1736;52.068;6.968;2022-11-14T04:51:41;41.27;;;19.27;;
3443;SDS011;1736;52.068;6.968;2022-11-14T04:54:07;41.60;;;20.10;;
3443;SDS011;1736;52.068;6.968;2022-11-14T04:56:35;38.60;;;17.13;;
3443;SDS011;1736;52.068;6.968;2022-11-14T04:59:02;39.77;;;19.90;;
3443;SDS011;1736;52.068;6.968;2022-11-14T05:01:29;41.37;;;20.40;;
3443;SDS011;1736;52.068;6.968;2022-11-14T05:03:55;37.43;;;18.37;;
3443;SDS011;1736;52.068;6.968;2022-11-14T05:06:22;46.63;;;19.53;;
3443;SDS011;1736;52.068;6.968;2022-11-14T05:08:48;42.17;;;19.40;;
3443;SDS011;1736;52.068;6.968;2022-11-14T05:11:15;38.80;;;19.53;;
3443;SDS011;1736;52.068;6.968;2022-11-14T05:13:44;43.97;;;19.50;;
3443;SDS011;1736;52.068;6.968;2022-11-14T05:16:11;40.00;;;20.77;;
3443;SDS011;1736;52.068;6.968;2022-11-14T05:18:38;43.03;;;19.70;;
3443;SDS011;1736;52.068;6.968;2022-11-14T05:21:05;43.27;;;20.93;;
3443;SDS011;1736;52.068;6.968;2022-11-14T05:23:32;40.60;;;19.80;;
3443;SDS011;1736;52.068;6.968;2022-11-14T05:25:59;44.70;;;21.23;;
3443;SDS011;1736;52.068;6.968;2022-11-14T05:28:26;40.97;;;19.70;;
3443;SDS011;1736;52.068;6.968;2022-11-14T05:31:00;37.20;;;18.53;;
3443;SDS011;1736;52.068;6.968;2022-11-14T05:33:27;42.40;;;18.83;;
3443;SDS011;1736;52.068;6.968;2022-11-14T05:35:54;39.07;;;19.10;;
3443;SDS011;1736;52.068;6.968;2022-11-14T05:38:20;40.33;;;20.20;;
3443;SDS011;1736;52.068;6.968;2022-11-14T05:40:47;48.07;;;19.80;;
3443;SDS011;1736;52.068;6.968;2022-11-14T05:43:14;44.60;;;20.67;;
3443;SDS011;1736;52.068;6.968;2022-11-14T05:45:40;43.50;;;20.50;;
3443;SDS011;1736;52.068;6.968;2022-11-14T05:48:08;45.67;;;21.40;;
3443;SDS011;1736;52.068;6.968;2022-11-14T05:50:34;47.70;;;20.30;;
3443;SDS011;1736;52.068;6.968;2022-11-14T05:56:22;40.77;;;21.10;;
3443;SDS011;1736;52.068;6.968;2022-11-14T06:05:12;44.80;;;19.27;;
3443;SDS011;1736;52.068;6.968;2022-11-14T06:07:39;46.90;;;21.53;;
3443;SDS011;1736;52.068;6.968;2022-11-14T06:10:06;46.20;;;20.87;;
3443;SDS011;1736;52.068;6.968;2022-11-14T06:12:32;44.20;;;20.57;;
3443;SDS011;1736;52.068;6.968;2022-11-14T06:14:59;44.27;;;20.40;;
3443;SDS011;1736;52.068;6.968;2022-11-14T06:17:25;43.77;;;20.83;;
3443;SDS011;1736;52.068;6.968;2022-11-14T06:19:52;45.40;;;19.57;;
3443;SDS011;1736;52.068;6.968;2022-11-14T06:22:20;53.20;;;20.83;;
3443;SDS011;1736;52.068;6.968;2022-11-14T06:24:46;43.80;;;20.60;;
3443;SDS011;1736;52.068;6.968;2022-11-14T06:27:13;46.93;;;21.10;;
3443;SDS011;1736;52.068;6.968;2022-11-14T06:29:39;45.63;;;21.17;;
3443;SDS011;1736;52.068;6.968;2022-11-14T06:32:06;46.93;;;20.70;;
3443;SDS011;1736;52.068;6.968;2022-11-14T06:34:32;47.63;;;23.20;;
3443;SDS011;1736;52.068;6.968;2022-11-14T06:36:59;45.47;;;20.40;;
3443;SDS011;1736;52.068;6.968;2022-11-14T06:39:27;51.70;;;21.50;;
3443;SDS011;1736;52.068;6.968;2022-11-14T06:41:53;49.43;;;22.07;;
3443;SDS011;1736;52.068;6.968;2022-11-14T06:44:20;51.97;;;22.30;;
3443;SDS011;1736;52.068;6.968;2022-11-14T06:46:46;52.60;;;24.77;;
3443;SDS011;1736;52.068;6.968;2022-11-14T06:49:13;46.80;;;20.30;;
3443;SDS011;1736;52.068;6.968;2022-11-14T06:51:39;48.63;;;23.00;;
3443;SDS011;1736;52.068;6.968;2022-11-14T06:54:06;43.87;;;20.93;;
3443;SDS011;1736;52.068;6.968;2022-11-14T06:56:33;48.33;;;22.10;;
3443;SDS011;1736;52.068;6.968;2022-11-14T06:59:00;50.97;;;21.90;;
3443;SDS011;1736;52.068;6.968;2022-11-14T07:01:27;51.50;;;21.80;;
3443;SDS011;1736;52.068;6.968;2022-11-14T07:03:53;45.37;;;21.90;;
3443;SDS011;1736;52.068;6.968;2022-11-14T07:06:23;44.47;;;21.10;;
3443;SDS011;1736;52.068;6.968;2022-11-14T07:08:51;47.40;;;21.23;;
3443;SDS011;1736;52.068;6.968;2022-11-14T07:11:19;38.37;;;20.43;;
3443;SDS011;1736;52.068;6.968;2022-11-14T07:13:49;40.63;;;19.83;;
3443;SDS011;1736;52.068;6.968;2022-11-14T07:16:16;46.07;;;21.30;;
3443;SDS011;1736;52.068;6.968;2022-11-14T07:18:43;49.27;;;21.27;;
3443;SDS011;1736;52.068;6.968;2022-11-14T07:21:10;47.90;;;20.93;;
3443;SDS011;1736;52.068;6.968;2022-11-14T07:23:37;48.13;;;20.27;;
3443;SDS011;1736;52.068;6.968;2022-11-14T07:26:05;44.43;;;20.90;;
3443;SDS011;1736;52.068;6.968;2022-11-14T07:28:32;41.90;;;20.03;;
3443;SDS011;1736;52.068;6.968;2022-11-14T07:31:02;41.30;;;20.13;;
3443;SDS011;1736;52.068;6.968;2022-11-14T07:33:30;50.57;;;21.50;;
3443;SDS011;1736;52.068;6.968;2022-11-14T07:35:57;50.07;;;20.80;;
3443;SDS011;1736;52.068;6.968;2022-11-14T07:38:23;44.60;;;20.23;;
3443;SDS011;1736;52.068;6.968;2022-11-14T07:40:53;40.60;;;19.80;;
3443;SDS011;1736;52.068;6.968;2022-11-14T07:43:20;45.40;;;20.57;;
3443;SDS011;1736;52.068;6.968;2022-11-14T07:45:47;47.13;;;20.30;;
3443;SDS011;1736;52.068;6.968;2022-11-14T07:48:15;42.83;;;21.30;;
3443;SDS011;1736;52.068;6.968;2022-11-14T07:50:42;45.33;;;19.73;;
3443;SDS011;1736;52.068;6.968;2022-11-14T07:53:09;44.00;;;21.60;;
3443;SDS011;1736;52.068;6.968;2022-11-14T07:55:36;44.30;;;20.37;;
3443;SDS011;1736;52.068;6.968;2022-11-14T07:58:02;37.87;;;19.67;;
3443;SDS011;1736;52.068;6.968;2022-11-14T08:00:29;37.50;;;18.43;;
3443;SDS011;1736;52.068;6.968;2022-11-14T08:02:56;44.23;;;19.70;;
3443;SDS011;1736;52.068;6.968;2022-11-14T08:05:24;41.47;;;19.63;;
3443;SDS011;1736;52.068;6.968;2022-11-14T08:07:50;36.00;;;19.60;;
3443;SDS011;1736;52.068;6.968;2022-11-14T08:10:18;42.33;;;18.80;;
3443;SDS011;1736;52.068;6.968;2022-11-14T08:12:45;40.23;;;20.40;;
3443;SDS011;1736;52.068;6.968;2022-11-14T08:15:12;38.40;;;18.73;;
3443;SDS011;1736;52.068;6.968;2022-11-14T08:17:39;35.80;;;19.20;;
3443;SDS011;1736;52.068;6.968;2022-11-14T08:20:06;40.70;;;17.90;;
3443;SDS011;1736;52.068;6.968;2022-11-14T08:22:35;35.47;;;19.20;;
3443;SDS011;1736;52.068;6.968;2022-11-14T08:25:02;43.00;;;22.87;;
3443;SDS011;1736;52.068;6.968;2022-11-14T08:27:29;58.20;;;28.37;;
3443;SDS011;1736;52.068;6.968;2022-11-14T08:29:56;37.73;;;19.30;;
3443;SDS011;1736;52.068;6.968;2022-11-14T08:32:22;42.23;;;18.03;;
3443;SDS011;1736;52.068;6.968;2022-11-14T08:34:49;37.77;;;18.93;;
3443;SDS011;1736;52.068;6.968;2022-11-14T08:37:15;34.93;;;18.07;;
3443;SDS011;1736;52.068;6.968;2022-11-14T08:39:43;35.17;;;17.10;;
3443;SDS011;1736;52.068;6.968;2022-11-14T08:42:10;35.13;;;17.37;;
3443;SDS011;1736;52.068;6.968;2022-11-14T08:44:36;32.23;;;17.00;;
3443;SDS011;1736;52.068;6.968;2022-11-14T08:47:03;33.30;;;17.00;;
3443;SDS011;1736;52.068;6.968;2022-11-14T08:49:29;30.77;;;16.60;;
3443;SDS011;1736;52.068;6.968;2022-11-14T08:51:56;30.07;;;16.00;;
3443;SDS011;1736;52.068;6.968;2022-11-14T08:54:22;28.23;;;15.60;;
3443;SDS011;1736;52.068;6.968;2022-11-14T08:56:50;32.60;;;16.80;;
3443;SDS011;1736;52.068;6.968;2022-11-14T08:59:17;30.60;;;15.93;;
3443;SDS011;1736;52.068;6.968;2022-11-14T09:01:43;31.90;;;16.87;;
3443;SDS011;1736;52.068;6.968;2022-11-14T09:04:10;29.30;;;16.00;;
3443;SDS011;1736;52.068;6.968;2022-11-14T09:06:37;34.50;;;16.53;;
3443;SDS011;1736;52.068;6.968;2022-11-14T09:09:03;27.10;;;15.20;;
3443;SDS011;1736;52.068;6.968;2022-11-14T09:11:30;25.87;;;14.93;;
3443;SDS011;1736;52.068;6.968;2022-11-14T09:13:57;29.50;;;15.40;;
3443;SDS011;1736;52.068;6.968;2022-11-14T09:16:25;27.53;;;14.73;;
3443;SDS011;1736;52.068;6.968;2022-11-14T09:18:51;28.23;;;14.23;;
3443;SDS011;1736;52.068;6.968;2022-11-14T09:21:18;28.37;;;14.47;;
3443;SDS011;1736;52.068;6.968;2022-11-14T09:23:45;22.60;;;13.03;;
3443;SDS011;1736;52.068;6.968;2022-11-14T09:26:12;25.57;;;13.43;;
3443;SDS011;1736;52.068;6.968;2022-11-14T09:28:38;26.57;;;14.27;;
3443;SDS011;1736;52.068;6.968;2022-11-14T09:31:07;28.53;;;14.67;;
3443;SDS011;1736;52.068;6.968;2022-11-14T09:33:35;27.87;;;15.70;;
3443;SDS011;1736;52.068;6.968;2022-11-14T09:36:03;22.83;;;13.60;;
3443;SDS011;1736;52.068;6.968;2022-11-14T09:38:31;32.20;;;14.50;;
3443;SDS011;1736;52.068;6.968;2022-11-14T09:41:01;25.73;;;14.07;;
3443;SDS011;1736;52.068;6.968;2022-11-14T09:43:41;22.60;;;13.20;;
3443;SDS011;1736;52.068;6.968;2022-11-14T09:46:20;22.87;;;14.27;;
3443;SDS011;1736;52.068;6.968;2022-11-14T09:48:49;22.63;;;13.33;;
3443;SDS011;1736;52.068;6.968;2022-11-14T09:51:18;23.07;;;13.90;;
3443;SDS011;1736;52.068;6.968;2022-11-14T09:53:47;24.80;;;13.47;;
3443;SDS011;1736;52.068;6.968;2022-11-14T09:56:19;18.90;;;11.83;;
3443;SDS011;1736;52.068;6.968;2022-11-14T09:58:48;21.30;;;12.67;;
3443;SDS011;1736;52.068;6.968;2022-11-14T10:01:16;23.47;;;12.70;;
3443;SDS011;1736;52.068;6.968;2022-11-14T10:03:56;21.13;;;12.97;;
3443;SDS011;1736;52.068;6.968;2022-11-14T10:06:28;21.33;;;12.17;;
3443;SDS011;1736;52.068;6.968;2022-11-14T10:09:02;26.90;;;13.73;;
3443;SDS011;1736;52.068;6.968;2022-11-14T10:11:43;25.10;;;13.70;;
3443;SDS011;1736;52.068;6.968;2022-11-14T10:14:21;23.43;;;13.50;;
3443;SDS011;1736;52.068;6.968;2022-11-14T10:17:02;26.50;;;13.80;;
3443;SDS011;1736;52.068;6.968;2022-11-14T10:19:40;22.77;;;13.27;;
3443;SDS011;1736;52.068;6.968;2022-11-14T10:22:15;22.83;;;12.90;;
3443;SDS011;1736;52.068;6.968;2022-11-14T10:24:56;21.37;;;13.23;;
3443;SDS011;1736;52.068;6.968;2022-11-14T10:27:37;23.30;;;13.30;;
3443;SDS011;1736;52.068;6.968;2022-11-14T10:30:08;20.70;;;12.60;;
3443;SDS011;1736;52.068;6.968;2022-11-14T10:32:45;22.40;;;13.33;;
3443;SDS011;1736;52.068;6.968;2022-11-14T10:35:22;22.83;;;12.33;;
3443;SDS011;1736;52.068;6.968;2022-11-14T10:37:56;21.43;;;13.30;;
3443;SDS011;1736;52.068;6.968;2022-11-14T10:40:29;25.93;;;14.43;;
3443;SDS011;1736;52.068;6.968;2022-11-14T10:43:02;23.47;;;13.83;;
3443;SDS011;1736;52.068;6.968;2022-11-14T10:45:37;23.90;;;12.90;;
3443;SDS011;1736;52.068;6.968;2022-11-14T10:48:10;23.50;;;13.37;;
3443;SDS011;1736;52.068;6.968;2022-11-14T10:50:41;26.50;;;12.93;;
3443;SDS011;1736;52.068;6.968;2022-11-14T10:53:15;22.23;;;13.30;;
3443;SDS011;1736;52.068;6.968;2022-11-14T10:55:49;25.63;;;13.37;;
3443;SDS011;1736;52.068;6.968;2022-11-14T10:58:19;27.20;;;14.50;;
3443;SDS011;1736;52.068;6.968;2022-11-14T11:00:46;23.63;;;13.67;;
3443;SDS011;1736;52.068;6.968;2022-11-14T11:03:14;25.10;;;13.40;;
3443;SDS011;1736;52.068;6.968;2022-11-14T11:05:45;21.10;;;12.83;;
3443;SDS011;1736;52.068;6.968;2022-11-14T11:08:17;20.40;;;12.53;;
3443;SDS011;1736;52.068;6.968;2022-11-14T11:11:03;23.53;;;13.20;;
3443;SDS011;1736;52.068;6.968;2022-11-14T11:13:49;24.90;;;13.90;;
3443;SDS011;1736;52.068;6.968;2022-11-14T11:16:20;52.77;;;15.50;;
3443;SDS011;1736;52.068;6.968;2022-11-14T11:18:49;21.40;;;13.63;;
3443;SDS011;1736;52.068;6.968;2022-11-14T11:21:17;25.10;;;13.13;;
3443;SDS011;1736;52.068;6.968;2022-11-14T11:23:49;19.07;;;12.73;;
3443;SDS011;1736;52.068;6.968;2022-11-14T11:26:21;19.63;;;12.27;;
3443;SDS011;1736;52.068;6.968;2022-11-14T11:29:06;21.00;;;12.07;;
3443;SDS011;1736;52.068;6.968;2022-11-14T11:31:48;17.43;;;10.60;;
3443;SDS011;1736;52.068;6.968;2022-11-14T11:34:19;16.27;;;11.13;;
3443;SDS011;1736;52.068;6.968;2022-11-14T11:36:50;18.23;;;12.43;;
3443;SDS011;1736;52.068;6.968;2022-11-14T11:39:24;22.37;;;13.00;;
3443;SDS011;1736;52.068;6.968;2022-11-14T11:41:53;17.17;;;11.30;;
3443;SDS011;1736;52.068;6.968;2022-11-14T11:44:23;20.10;;;12.43;;
3443;SDS011;1736;52.068;6.968;2022-11-14T11:47:00;19.83;;;12.33;;
3443;SDS011;1736;52.068;6.968;2022-11-14T11:49:36;19.83;;;13.07;;
3443;SDS011;1736;52.068;6.968;2022-11-14T11:52:10;21.27;;;12.83;;
3443;SDS011;1736;52.068;6.968;2022-11-14T11:54:43;19.23;;;12.20;;
3443;SDS011;1736;52.068;6.968;2022-11-14T11:57:16;18.97;;;12.77;;
3443;SDS011;1736;52.068;6.968;2022-11-14T11:59:49;27.97;;;13.27;;
3443;SDS011;1736;52.068;6.968;2022-11-14T12:02:20;21.27;;;12.40;;
3443;SDS011;1736;52.068;6.968;2022-11-14T12:04:50;23.77;;;12.60;;
3443;SDS011;1736;52.068;6.968;2022-11-14T12:07:18;20.60;;;13.07;;
3443;SDS011;1736;52.068;6.968;2022-11-14T12:09:47;20.33;;;13.40;;
3443;SDS011;1736;52.068;6.968;2022-11-14T12:12:18;22.40;;;13.20;;
3443;SDS011;1736;52.068;6.968;2022-11-14T12:14:52;22.80;;;13.13;;
3443;SDS011;1736;52.068;6.968;2022-11-14T12:17:35;23.60;;;12.97;;
3443;SDS011;1736;52.068;6.968;2022-11-14T12:23:21;19.60;;;11.37;;
3443;SDS011;1736;52.068;6.968;2022-11-14T12:26:04;19.43;;;11.47;;
3443;SDS011;1736;52.068;6.968;2022-11-14T12:28:49;18.53;;;10.57;;
3443;SDS011;1736;52.068;6.968;2022-11-14T12:31:24;18.60;;;11.53;;
3443;SDS011;1736;52.068;6.968;2022-11-14T12:33:54;14.60;;;9.43;;
3443;SDS011;1736;52.068;6.968;2022-11-14T12:36:27;14.40;;;10.20;;
3443;SDS011;1736;52.068;6.968;2022-11-14T12:38:56;17.00;;;10.30;;
3443;SDS011;1736;52.068;6.968;2022-11-14T12:41:24;15.90;;;9.60;;
3443;SDS011;1736;52.068;6.968;2022-11-14T12:43:53;16.27;;;10.00;;
3443;SDS011;1736;52.068;6.968;2022-11-14T12:53:00;13.63;;;9.10;;
3443;SDS011;1736;52.068;6.968;2022-11-14T13:01:44;12.50;;;8.57;;
3443;SDS011;1736;52.068;6.968;2022-11-14T13:04:23;13.40;;;9.13;;
3443;SDS011;1736;52.068;6.968;2022-11-14T13:07:12;16.50;;;9.53;;
3443;SDS011;1736;52.068;6.968;2022-11-14T13:09:56;13.03;;;9.03;;
3443;SDS011;1736;52.068;6.968;2022-11-14T13:12:28;15.10;;;8.73;;
3443;SDS011;1736;52.068;6.968;2022-11-14T13:18:29;15.10;;;9.80;;
3443;SDS011;1736;52.068;6.968;2022-11-14T13:21:17;15.50;;;8.87;;
3443;SDS011;1736;52.068;6.968;2022-11-14T13:24:04;17.07;;;9.63;;
3443;SDS011;1736;52.068;6.968;2022-11-14T13:35:14;16.10;;;10.37;;
3443;SDS011;1736;52.068;6.968;2022-11-14T13:37:48;19.70;;;10.67;;
3443;SDS011;1736;52.068;6.968;2022-11-14T13:40:25;14.43;;;10.33;;
3443;SDS011;1736;52.068;6.968;2022-11-14T13:43:00;25.23;;;12.77;;
3443;SDS011;1736;52.068;6.968;2022-11-14T13:45:39;18.23;;;10.33;;
3443;SDS011;1736;52.068;6.968;2022-11-14T13:51:29;15.77;;;10.77;;
3443;SDS011;1736;52.068;6.968;2022-11-14T13:53:57;16.57;;;10.60;;
3443;SDS011;1736;52.068;6.968;2022-11-14T13:56:27;17.63;;;10.20;;
3443;SDS011;1736;52.068;6.968;2022-11-14T13:59:06;22.17;;;10.03;;
3443;SDS011;1736;52.068;6.968;2022-11-14T14:02:06;16.30;;;10.17;;
3443;SDS011;1736;52.068;6.968;2022-11-14T14:04:47;14.53;;;10.20;;
3443;SDS011;1736;52.068;6.968;2022-11-14T14:07:23;19.93;;;11.10;;
3443;SDS011;1736;52.068;6.968;2022-11-14T14:09:58;17.77;;;10.30;;
3443;SDS011;1736;52.068;6.968;2022-11-14T14:12:40;14.80;;;9.50;;
3443;SDS011;1736;52.068;6.968;2022-11-14T14:15:19;15.80;;;10.73;;
3443;SDS011;1736;52.068;6.968;2022-11-14T14:17:53;16.53;;;10.90;;
3443;SDS011;1736;52.068;6.968;2022-11-14T14:20:29;21.00;;;11.50;;
3443;SDS011;1736;52.068;6.968;2022-11-14T14:23:05;17.57;;;10.67;;
3443;SDS011;1736;52.068;6.968;2022-11-14T14:25:44;16.00;;;9.90;;
3443;SDS011;1736;52.068;6.968;2022-11-14T14:28:18;18.47;;;11.20;;
3443;SDS011;1736;52.068;6.968;2022-11-14T14:31:09;17.60;;;10.30;;
3443;SDS011;1736;52.068;6.968;2022-11-14T14:33:41;15.73;;;10.97;;
3443;SDS011;1736;52.068;6.968;2022-11-14T14:36:18;13.90;;;9.57;;
3443;SDS011;1736;52.068;6.968;2022-11-14T14:38:47;16.60;;;10.17;;
3443;SDS011;1736;52.068;6.968;2022-11-14T14:41:15;15.77;;;10.27;;
3443;SDS011;1736;52.068;6.968;2022-11-14T14:43:48;16.17;;;10.73;;
3443;SDS011;1736;52.068;6.968;2022-11-14T14:46:25;15.70;;;10.63;;
3443;SDS011;1736;52.068;6.968;2022-11-14T14:48:54;19.50;;;11.33;;
3443;SDS011;1736;52.068;6.968;2022-11-14T14:51:28;19.57;;;10.63;;
3443;SDS011;1736;52.068;6.968;2022-11-14T14:53:56;15.23;;;10.10;;
3443;SDS011;1736;52.068;6.968;2022-11-14T14:56:23;18.13;;;11.10;;
3443;SDS011;1736;52.068;6.968;2022-11-14T14:58:50;17.40;;;11.10;;
3443;SDS011;1736;52.068;6.968;2022-11-14T15:01:17;17.60;;;10.07;;
3443;SDS011;1736;52.068;6.968;2022-11-14T15:03:47;19.00;;;10.20;;
3443;SDS011;1736;52.068;6.968;2022-11-14T15:06:19;14.83;;;9.73;;
3443;SDS011;1736;52.068;6.968;2022-11-14T15:08:53;17.27;;;10.30;;
3443;SDS011;1736;52.068;6.968;2022-11-14T15:11:21;18.87;;;11.17;;
3443;SDS011;1736;52.068;6.968;2022-11-14T15:13:51;17.90;;;11.20;;
3443;SDS011;1736;52.068;6.968;2022-11-14T15:16:20;17.13;;;11.30;;
3443;SDS011;1736;52.068;6.968;2022-11-14T15:18:48;16.13;;;10.13;;
3443;SDS011;1736;52.068;6.968;2022-11-14T15:21:22;20.00;;;10.90;;
3443;SDS011;1736;52.068;6.968;2022-11-14T15:23:58;18.97;;;10.30;;
3443;SDS011;1736;52.068;6.968;2022-11-14T15:26:28;20.07;;;11.17;;
3443;SDS011;1736;52.068;6.968;2022-11-14T15:29:04;17.87;;;11.13;;
3443;SDS011;1736;52.068;6.968;2022-11-14T15:31:32;17.53;;;10.70;;
3443;SDS011;1736;52.068;6.968;2022-11-14T15:34:03;19.87;;;11.33;;
3443;SDS011;1736;52.068;6.968;2022-11-14T15:36:31;21.63;;;12.17;;
3443;SDS011;1736;52.068;6.968;2022-11-14T15:38:58;24.20;;;13.10;;
3443;SDS011;1736;52.068;6.968;2022-11-14T15:41:27;18.43;;;12.57;;
3443;SDS011;1736;52.068;6.968;2022-11-14T15:43:55;19.43;;;11.93;;